sensor_id;sensor_type;location;lat;lon;timestamp;P1;durP1;ratioP1;P2;durP2;ratioP2
24521;SDS011;12680;57.804;12.190;2023-11-21T00:02:26;14.75;;;8.55;;
24521;SDS011;12680;57.804;12.190;2023-11-21T00:04:53;13.20;;;7.72;;
24521;SDS011;12680;57.804;12.190;2023-11-21T00:07:20;13.77;;;7.80;;
24521;SDS011;12680;57.804;12.190;2023-11-21T00:09:47;15.50;;;7.90;;
24521;SDS011;12680;57.804;12.190;2023-11-21T00:12:14;16.55;;;8.00;;
24521;SDS011;12680;57.804;12.190;2023-11-21T00:14:41;13.13;;;6.80;;
24521;SDS011;12680;57.804;12.190;2023-11-21T00:17:08;13.90;;;7.60;;
24521;SDS011;12680;57.804;12.190;2023-11-21T00:19:35;16.67;;;8.15;;
24521;SDS011;12680;57.804;12.190;2023-11-21T00:22:02;13.95;;;7.53;;
24521;SDS011;12680;57.804;12.190;2023-11-21T00:24:29;12.88;;;7.97;;
24521;SDS011;12680;57.804;12.190;2023-11-21T00:26:56;13.30;;;7.10;;
24521;SDS011;12680;57.804;12.190;2023-11-21T00:29:22;13.35;;;7.35;;
24521;SDS011;12680;57.804;12.190;2023-11-21T00:31:49;13.45;;;7.90;;
24521;SDS011;12680;57.804;12.190;2023-11-21T00:34:16;12.82;;;7.82;;
24521;SDS011;12680;57.804;12.190;2023-11-21T00:36:43;15.70;;;7.68;;
24521;SDS011;12680;57.804;12.190;2023-11-21T00:39:09;12.52;;;6.90;;
24521;SDS011;12680;57.804;12.190;2023-11-21T00:41:37;12.30;;;7.85;;
24521;SDS011;12680;57.804;12.190;2023-11-21T00:44:04;15.05;;;8.10;;
24521;SDS011;12680;57.804;12.190;2023-11-21T00:46:32;12.02;;;7.00;;
24521;SDS011;12680;57.804;12.190;2023-11-21T00:48:59;13.18;;;8.05;;
24521;SDS011;12680;57.804;12.190;2023-11-21T00:51:26;14.15;;;7.93;;
24521;SDS011;12680;57.804;12.190;2023-11-21T00:53:53;12.50;;;7.30;;
24521;SDS011;12680;57.804;12.190;2023-11-21T00:56:20;12.77;;;8.35;;
24521;SDS011;12680;57.804;12.190;2023-11-21T00:58:47;12.43;;;7.43;;
24521;SDS011;12680;57.804;12.190;2023-11-21T01:01:16;14.20;;;7.50;;
24521;SDS011;12680;57.804;12.190;2023-11-21T01:03:44;10.88;;;7.22;;
24521;SDS011;12680;57.804;12.190;2023-11-21T01:06:12;14.23;;;7.72;;
24521;SDS011;12680;57.804;12.190;2023-11-21T01:08:41;11.65;;;6.28;;
24521;SDS011;12680;57.804;12.190;2023-11-21T01:11:08;16.05;;;7.60;;
24521;SDS011;12680;57.804;12.190;2023-11-21T01:13:38;11.85;;;6.88;;
24521;SDS011;12680;57.804;12.190;2023-11-21T01:16:06;14.13;;;7.88;;
24521;SDS011;12680;57.804;12.190;2023-11-21T01:18:34;13.15;;;7.40;;
24521;SDS011;12680;57.804;12.190;2023-11-21T01:21:01;13.63;;;6.80;;
24521;SDS011;12680;57.804;12.190;2023-11-21T01:23:28;13.63;;;6.85;;
24521;SDS011;12680;57.804;12.190;2023-11-21T01:25:56;8.63;;;5.82;;
24521;SDS011;12680;57.804;12.190;2023-11-21T01:28:23;13.50;;;7.10;;
24521;SDS011;12680;57.804;12.190;2023-11-21T01:30:50;13.77;;;7.07;;
24521;SDS011;12680;57.804;12.190;2023-11-21T01:33:16;9.63;;;6.28;;
24521;SDS011;12680;57.804;12.190;2023-11-21T01:35:43;12.88;;;7.72;;
24521;SDS011;12680;57.804;12.190;2023-11-21T01:38:12;11.23;;;6.35;;
24521;SDS011;12680;57.804;12.190;2023-11-21T01:40:39;11.63;;;6.32;;
24521;SDS011;12680;57.804;12.190;2023-11-21T01:43:06;13.75;;;8.20;;
24521;SDS011;12680;57.804;12.190;2023-11-21T01:45:35;12.32;;;6.95;;
24521;SDS011;12680;57.804;12.190;2023-11-21T01:48:02;12.85;;;7.63;;
24521;SDS011;12680;57.804;12.190;2023-11-21T01:50:30;12.43;;;6.90;;
24521;SDS011;12680;57.804;12.190;2023-11-21T01:52:57;10.70;;;6.75;;
24521;SDS011;12680;57.804;12.190;2023-11-21T01:55:24;10.20;;;6.63;;
24521;SDS011;12680;57.804;12.190;2023-11-21T01:57:54;11.25;;;6.55;;
24521;SDS011;12680;57.804;12.190;2023-11-21T02:00:24;10.95;;;6.30;;
24521;SDS011;12680;57.804;12.190;2023-11-21T02:02:51;12.77;;;7.78;;
24521;SDS011;12680;57.804;12.190;2023-11-21T02:05:18;12.70;;;7.20;;
24521;SDS011;12680;57.804;12.190;2023-11-21T02:07:46;10.80;;;6.90;;
24521;SDS011;12680;57.804;12.190;2023-11-21T02:10:18;11.73;;;6.43;;
24521;SDS011;12680;57.804;12.190;2023-11-21T02:12:50;12.23;;;6.60;;
24521;SDS011;12680;57.804;12.190;2023-11-21T02:15:18;13.82;;;7.20;;
24521;SDS011;12680;57.804;12.190;2023-11-21T02:17:49;11.43;;;7.18;;
24521;SDS011;12680;57.804;12.190;2023-11-21T02:22:50;13.70;;;6.22;;
24521;SDS011;12680;57.804;12.190;2023-11-21T02:25:28;11.95;;;6.43;;
24521;SDS011;12680;57.804;12.190;2023-11-21T02:27:56;12.90;;;7.07;;
24521;SDS011;12680;57.804;12.190;2023-11-21T02:30:24;12.98;;;7.18;;
24521;SDS011;12680;57.804;12.190;2023-11-21T02:32:54;12.68;;;6.30;;
24521;SDS011;12680;57.804;12.190;2023-11-21T02:35:23;12.57;;;6.63;;
24521;SDS011;12680;57.804;12.190;2023-11-21T02:37:52;11.00;;;6.57;;
24521;SDS011;12680;57.804;12.190;2023-11-21T02:40:20;10.60;;;6.07;;
24521;SDS011;12680;57.804;12.190;2023-11-21T02:42:47;10.85;;;6.40;;
24521;SDS011;12680;57.804;12.190;2023-11-21T02:45:14;11.35;;;6.30;;
24521;SDS011;12680;57.804;12.190;2023-11-21T02:47:43;11.52;;;5.75;;
24521;SDS011;12680;57.804;12.190;2023-11-21T02:50:11;11.10;;;6.43;;
24521;SDS011;12680;57.804;12.190;2023-11-21T02:52:38;12.48;;;6.18;;
24521;SDS011;12680;57.804;12.190;2023-11-21T02:55:06;9.48;;;6.03;;
24521;SDS011;12680;57.804;12.190;2023-11-21T02:57:33;8.30;;;5.43;;
24521;SDS011;12680;57.804;12.190;2023-11-21T03:00:00;10.10;;;5.97;;
24521;SDS011;12680;57.804;12.190;2023-11-21T03:02:27;8.63;;;5.32;;
24521;SDS011;12680;57.804;12.190;2023-11-21T03:04:54;10.00;;;5.85;;
24521;SDS011;12680;57.804;12.190;2023-11-21T03:07:21;9.25;;;5.70;;
24521;SDS011;12680;57.804;12.190;2023-11-21T03:09:48;8.00;;;5.22;;
24521;SDS011;12680;57.804;12.190;2023-11-21T03:12:14;8.65;;;5.60;;
24521;SDS011;12680;57.804;12.190;2023-11-21T03:14:42;8.35;;;5.75;;
24521;SDS011;12680;57.804;12.190;2023-11-21T03:17:08;8.95;;;5.13;;
24521;SDS011;12680;57.804;12.190;2023-11-21T03:19:35;9.55;;;6.07;;
24521;SDS011;12680;57.804;12.190;2023-11-21T03:22:02;8.60;;;5.38;;
24521;SDS011;12680;57.804;12.190;2023-11-21T03:24:30;10.18;;;6.15;;
24521;SDS011;12680;57.804;12.190;2023-11-21T03:26:57;10.63;;;6.32;;
24521;SDS011;12680;57.804;12.190;2023-11-21T03:29:23;7.97;;;5.50;;
24521;SDS011;12680;57.804;12.190;2023-11-21T03:31:51;10.40;;;5.60;;
24521;SDS011;12680;57.804;12.190;2023-11-21T03:34:25;9.73;;;5.47;;
24521;SDS011;12680;57.804;12.190;2023-11-21T03:36:53;7.53;;;5.05;;
24521;SDS011;12680;57.804;12.190;2023-11-21T03:39:20;6.72;;;4.95;;
24521;SDS011;12680;57.804;12.190;2023-11-21T03:41:47;11.27;;;5.93;;
24521;SDS011;12680;57.804;12.190;2023-11-21T03:44:14;9.63;;;6.13;;
24521;SDS011;12680;57.804;12.190;2023-11-21T03:46:41;10.57;;;5.97;;
24521;SDS011;12680;57.804;12.190;2023-11-21T03:49:07;9.05;;;5.15;;
24521;SDS011;12680;57.804;12.190;2023-11-21T03:51:34;9.55;;;5.75;;
24521;SDS011;12680;57.804;12.190;2023-11-21T03:54:01;8.00;;;5.43;;
24521;SDS011;12680;57.804;12.190;2023-11-21T03:56:28;8.85;;;5.25;;
24521;SDS011;12680;57.804;12.190;2023-11-21T03:58:56;8.20;;;5.22;;
24521;SDS011;12680;57.804;12.190;2023-11-21T04:01:23;8.38;;;4.60;;
24521;SDS011;12680;57.804;12.190;2023-11-21T04:03:50;7.97;;;5.15;;
24521;SDS011;12680;57.804;12.190;2023-11-21T04:06:17;7.10;;;4.72;;
24521;SDS011;12680;57.804;12.190;2023-11-21T04:08:44;10.05;;;5.50;;
24521;SDS011;12680;57.804;12.190;2023-11-21T04:11:12;8.50;;;4.53;;
24521;SDS011;12680;57.804;12.190;2023-11-21T04:13:39;8.50;;;5.03;;
24521;SDS011;12680;57.804;12.190;2023-11-21T04:16:07;6.90;;;4.50;;
24521;SDS011;12680;57.804;12.190;2023-11-21T04:18:37;10.38;;;5.30;;
24521;SDS011;12680;57.804;12.190;2023-11-21T04:21:05;11.05;;;5.43;;
24521;SDS011;12680;57.804;12.190;2023-11-21T04:23:32;7.55;;;4.93;;
24521;SDS011;12680;57.804;12.190;2023-11-21T04:25:59;8.10;;;5.03;;
24521;SDS011;12680;57.804;12.190;2023-11-21T04:28:28;8.18;;;4.68;;
24521;SDS011;12680;57.804;12.190;2023-11-21T04:30:55;9.15;;;5.40;;
24521;SDS011;12680;57.804;12.190;2023-11-21T04:33:22;9.90;;;5.15;;
24521;SDS011;12680;57.804;12.190;2023-11-21T04:35:49;8.60;;;5.05;;
24521;SDS011;12680;57.804;12.190;2023-11-21T04:38:16;10.02;;;5.40;;
24521;SDS011;12680;57.804;12.190;2023-11-21T04:40:42;8.00;;;4.75;;
24521;SDS011;12680;57.804;12.190;2023-11-21T04:43:09;9.57;;;5.47;;
24521;SDS011;12680;57.804;12.190;2023-11-21T04:45:36;8.40;;;4.97;;
24521;SDS011;12680;57.804;12.190;2023-11-21T04:48:03;9.68;;;5.78;;
24521;SDS011;12680;57.804;12.190;2023-11-21T04:50:30;6.80;;;5.03;;
24521;SDS011;12680;57.804;12.190;2023-11-21T04:52:57;8.43;;;4.65;;
24521;SDS011;12680;57.804;12.190;2023-11-21T04:55:24;8.10;;;5.00;;
24521;SDS011;12680;57.804;12.190;2023-11-21T04:57:54;8.02;;;5.45;;
24521;SDS011;12680;57.804;12.190;2023-11-21T05:00:21;8.18;;;5.05;;
24521;SDS011;12680;57.804;12.190;2023-11-21T05:02:48;12.02;;;5.80;;
24521;SDS011;12680;57.804;12.190;2023-11-21T05:05:15;9.77;;;5.15;;
24521;SDS011;12680;57.804;12.190;2023-11-21T05:07:42;8.13;;;5.45;;
24521;SDS011;12680;57.804;12.190;2023-11-21T05:10:09;9.00;;;4.80;;
24521;SDS011;12680;57.804;12.190;2023-11-21T05:12:41;10.90;;;5.20;;
24521;SDS011;12680;57.804;12.190;2023-11-21T05:15:08;8.38;;;5.68;;
24521;SDS011;12680;57.804;12.190;2023-11-21T05:17:37;7.78;;;5.68;;
24521;SDS011;12680;57.804;12.190;2023-11-21T05:20:05;7.45;;;4.47;;
24521;SDS011;12680;57.804;12.190;2023-11-21T05:22:35;7.72;;;4.88;;
24521;SDS011;12680;57.804;12.190;2023-11-21T05:25:07;11.02;;;5.43;;
24521;SDS011;12680;57.804;12.190;2023-11-21T05:27:43;9.93;;;5.05;;
24521;SDS011;12680;57.804;12.190;2023-11-21T05:30:12;10.50;;;5.65;;
24521;SDS011;12680;57.804;12.190;2023-11-21T05:32:40;9.27;;;5.18;;
24521;SDS011;12680;57.804;12.190;2023-11-21T05:35:13;9.27;;;5.00;;
24521;SDS011;12680;57.804;12.190;2023-11-21T05:37:46;8.63;;;5.28;;
24521;SDS011;12680;57.804;12.190;2023-11-21T05:40:17;11.18;;;5.50;;
24521;SDS011;12680;57.804;12.190;2023-11-21T05:42:49;7.90;;;4.90;;
24521;SDS011;12680;57.804;12.190;2023-11-21T05:45:17;6.38;;;4.20;;
24521;SDS011;12680;57.804;12.190;2023-11-21T05:47:46;9.85;;;4.65;;
24521;SDS011;12680;57.804;12.190;2023-11-21T05:50:14;8.07;;;4.70;;
24521;SDS011;12680;57.804;12.190;2023-11-21T05:52:45;9.60;;;5.38;;
24521;SDS011;12680;57.804;12.190;2023-11-21T05:55:16;11.50;;;5.40;;
24521;SDS011;12680;57.804;12.190;2023-11-21T05:57:44;8.40;;;5.22;;
24521;SDS011;12680;57.804;12.190;2023-11-21T06:00:12;10.60;;;4.88;;
24521;SDS011;12680;57.804;12.190;2023-11-21T06:02:48;8.75;;;4.97;;
24521;SDS011;12680;57.804;12.190;2023-11-21T06:05:24;10.38;;;5.80;;
24521;SDS011;12680;57.804;12.190;2023-11-21T06:07:52;8.95;;;4.85;;
24521;SDS011;12680;57.804;12.190;2023-11-21T06:10:22;10.80;;;5.47;;
24521;SDS011;12680;57.804;12.190;2023-11-21T06:12:51;8.82;;;4.53;;
24521;SDS011;12680;57.804;12.190;2023-11-21T06:15:19;9.48;;;5.30;;
24521;SDS011;12680;57.804;12.190;2023-11-21T06:17:50;11.82;;;5.00;;
24521;SDS011;12680;57.804;12.190;2023-11-21T06:20:20;7.63;;;4.95;;
24521;SDS011;12680;57.804;12.190;2023-11-21T06:22:48;10.00;;;5.38;;
24521;SDS011;12680;57.804;12.190;2023-11-21T06:25:17;8.25;;;5.57;;
24521;SDS011;12680;57.804;12.190;2023-11-21T06:27:45;7.90;;;4.47;;
24521;SDS011;12680;57.804;12.190;2023-11-21T06:30:14;9.88;;;5.22;;
24521;SDS011;12680;57.804;12.190;2023-11-21T06:32:42;8.57;;;5.00;;
24521;SDS011;12680;57.804;12.190;2023-11-21T06:37:40;8.38;;;5.00;;
24521;SDS011;12680;57.804;12.190;2023-11-21T06:40:07;10.00;;;5.43;;
24521;SDS011;12680;57.804;12.190;2023-11-21T06:42:36;7.70;;;4.65;;
24521;SDS011;12680;57.804;12.190;2023-11-21T06:45:04;9.38;;;4.88;;
24521;SDS011;12680;57.804;12.190;2023-11-21T06:47:32;8.43;;;4.88;;
24521;SDS011;12680;57.804;12.190;2023-11-21T06:49:59;9.13;;;5.30;;
24521;SDS011;12680;57.804;12.190;2023-11-21T06:52:27;8.45;;;4.63;;
24521;SDS011;12680;57.804;12.190;2023-11-21T06:54:53;9.68;;;5.55;;
24521;SDS011;12680;57.804;12.190;2023-11-21T06:57:22;11.20;;;5.85;;
24521;SDS011;12680;57.804;12.190;2023-11-21T06:59:49;9.77;;;5.72;;
24521;SDS011;12680;57.804;12.190;2023-11-21T07:02:16;11.90;;;5.55;;
24521;SDS011;12680;57.804;12.190;2023-11-21T07:04:45;10.23;;;4.95;;
24521;SDS011;12680;57.804;12.190;2023-11-21T07:07:12;8.77;;;4.88;;
24521;SDS011;12680;57.804;12.190;2023-11-21T07:09:39;7.57;;;4.57;;
24521;SDS011;12680;57.804;12.190;2023-11-21T07:12:06;10.73;;;5.68;;
24521;SDS011;12680;57.804;12.190;2023-11-21T07:14:34;8.35;;;4.55;;
24521;SDS011;12680;57.804;12.190;2023-11-21T07:17:01;10.20;;;4.90;;
24521;SDS011;12680;57.804;12.190;2023-11-21T07:19:28;10.25;;;4.97;;
24521;SDS011;12680;57.804;12.190;2023-11-21T07:21:59;7.83;;;4.67;;
24521;SDS011;12680;57.804;12.190;2023-11-21T07:24:26;9.98;;;5.60;;
24521;SDS011;12680;57.804;12.190;2023-11-21T07:26:53;8.77;;;5.05;;
24521;SDS011;12680;57.804;12.190;2023-11-21T07:29:23;7.30;;;4.43;;
24521;SDS011;12680;57.804;12.190;2023-11-21T07:31:52;9.38;;;5.38;;
24521;SDS011;12680;57.804;12.190;2023-11-21T07:34:20;9.80;;;5.38;;
24521;SDS011;12680;57.804;12.190;2023-11-21T07:36:52;9.75;;;5.47;;
24521;SDS011;12680;57.804;12.190;2023-11-21T07:39:24;9.30;;;5.45;;
24521;SDS011;12680;57.804;12.190;2023-11-21T07:41:51;8.95;;;5.45;;
24521;SDS011;12680;57.804;12.190;2023-11-21T07:44:18;11.27;;;5.07;;
24521;SDS011;12680;57.804;12.190;2023-11-21T07:46:46;11.23;;;5.68;;
24521;SDS011;12680;57.804;12.190;2023-11-21T07:49:14;10.50;;;4.97;;
24521;SDS011;12680;57.804;12.190;2023-11-21T07:51:47;10.82;;;5.93;;
24521;SDS011;12680;57.804;12.190;2023-11-21T07:54:17;10.10;;;5.47;;
24521;SDS011;12680;57.804;12.190;2023-11-21T07:56:44;9.10;;;5.55;;
24521;SDS011;12680;57.804;12.190;2023-11-21T07:59:11;9.30;;;5.78;;
24521;SDS011;12680;57.804;12.190;2023-11-21T08:01:38;13.32;;;5.85;;
24521;SDS011;12680;57.804;12.190;2023-11-21T08:04:07;10.45;;;5.43;;
24521;SDS011;12680;57.804;12.190;2023-11-21T08:06:35;10.60;;;5.80;;
24521;SDS011;12680;57.804;12.190;2023-11-21T08:09:01;10.27;;;5.75;;
24521;SDS011;12680;57.804;12.190;2023-11-21T08:11:32;10.88;;;5.50;;
24521;SDS011;12680;57.804;12.190;2023-11-21T08:13:59;10.15;;;6.05;;
24521;SDS011;12680;57.804;12.190;2023-11-21T08:16:26;11.63;;;6.60;;
24521;SDS011;12680;57.804;12.190;2023-11-21T08:18:54;12.65;;;6.53;;
24521;SDS011;12680;57.804;12.190;2023-11-21T08:21:24;9.93;;;5.93;;
24521;SDS011;12680;57.804;12.190;2023-11-21T08:23:53;10.98;;;5.72;;
24521;SDS011;12680;57.804;12.190;2023-11-21T08:26:21;11.15;;;5.68;;
24521;SDS011;12680;57.804;12.190;2023-11-21T08:28:48;11.55;;;6.45;;
24521;SDS011;12680;57.804;12.190;2023-11-21T08:31:15;12.10;;;6.10;;
24521;SDS011;12680;57.804;12.190;2023-11-21T08:33:42;13.43;;;6.15;;
24521;SDS011;12680;57.804;12.190;2023-11-21T08:36:09;11.95;;;6.18;;
24521;SDS011;12680;57.804;12.190;2023-11-21T08:38:38;13.65;;;6.30;;
24521;SDS011;12680;57.804;12.190;2023-11-21T08:41:05;13.38;;;5.95;;
24521;SDS011;12680;57.804;12.190;2023-11-21T08:43:37;14.75;;;6.15;;
24521;SDS011;12680;57.804;12.190;2023-11-21T08:46:07;10.20;;;6.07;;
24521;SDS011;12680;57.804;12.190;2023-11-21T08:48:36;8.15;;;5.35;;
24521;SDS011;12680;57.804;12.190;2023-11-21T08:51:09;13.43;;;5.87;;
24521;SDS011;12680;57.804;12.190;2023-11-21T08:53:40;9.05;;;5.38;;
24521;SDS011;12680;57.804;12.190;2023-11-21T08:56:07;9.48;;;5.32;;
24521;SDS011;12680;57.804;12.190;2023-11-21T08:58:38;11.53;;;5.40;;
24521;SDS011;12680;57.804;12.190;2023-11-21T09:01:05;10.02;;;5.60;;
24521;SDS011;12680;57.804;12.190;2023-11-21T09:03:33;9.32;;;5.40;;
24521;SDS011;12680;57.804;12.190;2023-11-21T09:06:03;10.60;;;5.15;;
24521;SDS011;12680;57.804;12.190;2023-11-21T09:08:36;9.82;;;4.88;;
24521;SDS011;12680;57.804;12.190;2023-11-21T09:11:06;10.23;;;5.07;;
24521;SDS011;12680;57.804;12.190;2023-11-21T09:13:34;10.88;;;5.75;;
24521;SDS011;12680;57.804;12.190;2023-11-21T09:16:04;8.88;;;5.10;;
24521;SDS011;12680;57.804;12.190;2023-11-21T09:18:32;11.88;;;4.70;;
24521;SDS011;12680;57.804;12.190;2023-11-21T09:21:02;9.38;;;5.13;;
24521;SDS011;12680;57.804;12.190;2023-11-21T09:23:32;9.15;;;4.97;;
24521;SDS011;12680;57.804;12.190;2023-11-21T09:26:00;11.93;;;5.00;;
24521;SDS011;12680;57.804;12.190;2023-11-21T09:28:27;8.18;;;4.97;;
24521;SDS011;12680;57.804;12.190;2023-11-21T09:30:54;9.63;;;4.53;;
24521;SDS011;12680;57.804;12.190;2023-11-21T09:33:26;8.60;;;5.05;;
24521;SDS011;12680;57.804;12.190;2023-11-21T09:35:52;8.75;;;5.40;;
24521;SDS011;12680;57.804;12.190;2023-11-21T09:38:20;8.48;;;5.50;;
24521;SDS011;12680;57.804;12.190;2023-11-21T09:40:47;6.85;;;4.70;;
24521;SDS011;12680;57.804;12.190;2023-11-21T09:43:17;12.02;;;4.72;;
24521;SDS011;12680;57.804;12.190;2023-11-21T09:45:52;9.50;;;4.78;;
24521;SDS011;12680;57.804;12.190;2023-11-21T09:48:27;7.70;;;4.85;;
24521;SDS011;12680;57.804;12.190;2023-11-21T09:50:57;7.20;;;4.60;;
24521;SDS011;12680;57.804;12.190;2023-11-21T09:53:29;7.93;;;4.55;;
24521;SDS011;12680;57.804;12.190;2023-11-21T09:55:59;8.98;;;4.40;;
24521;SDS011;12680;57.804;12.190;2023-11-21T09:58:28;8.00;;;4.80;;
24521;SDS011;12680;57.804;12.190;2023-11-21T10:00:57;9.35;;;4.70;;
24521;SDS011;12680;57.804;12.190;2023-11-21T10:03:29;8.95;;;5.03;;
24521;SDS011;12680;57.804;12.190;2023-11-21T10:05:57;9.45;;;5.32;;
24521;SDS011;12680;57.804;12.190;2023-11-21T10:08:27;7.68;;;4.35;;
24521;SDS011;12680;57.804;12.190;2023-11-21T10:11:12;8.85;;;4.55;;
24521;SDS011;12680;57.804;12.190;2023-11-21T10:13:40;7.35;;;4.30;;
24521;SDS011;12680;57.804;12.190;2023-11-21T10:16:08;10.65;;;4.45;;
24521;SDS011;12680;57.804;12.190;2023-11-21T10:18:39;8.35;;;4.30;;
24521;SDS011;12680;57.804;12.190;2023-11-21T10:21:11;8.10;;;4.35;;
24521;SDS011;12680;57.804;12.190;2023-11-21T10:23:39;8.30;;;4.60;;
24521;SDS011;12680;57.804;12.190;2023-11-21T10:26:07;8.93;;;4.65;;
24521;SDS011;12680;57.804;12.190;2023-11-21T10:28:59;8.88;;;4.28;;
24521;SDS011;12680;57.804;12.190;2023-11-21T10:31:29;8.57;;;4.10;;
24521;SDS011;12680;57.804;12.190;2023-11-21T10:34:12;7.72;;;4.47;;
24521;SDS011;12680;57.804;12.190;2023-11-21T10:36:43;8.95;;;4.30;;
24521;SDS011;12680;57.804;12.190;2023-11-21T10:39:14;5.72;;;3.92;;
24521;SDS011;12680;57.804;12.190;2023-11-21T10:41:45;6.45;;;4.20;;
24521;SDS011;12680;57.804;12.190;2023-11-21T10:44:16;6.35;;;3.90;;
24521;SDS011;12680;57.804;12.190;2023-11-21T10:46:48;7.88;;;4.07;;
24521;SDS011;12680;57.804;12.190;2023-11-21T10:49:27;6.35;;;3.72;;
24521;SDS011;12680;57.804;12.190;2023-11-21T10:51:54;7.65;;;4.13;;
24521;SDS011;12680;57.804;12.190;2023-11-21T10:54:22;5.95;;;3.47;;
24521;SDS011;12680;57.804;12.190;2023-11-21T10:56:58;6.28;;;3.97;;
24521;SDS011;12680;57.804;12.190;2023-11-21T10:59:30;8.38;;;4.13;;
24521;SDS011;12680;57.804;12.190;2023-11-21T11:01:59;8.88;;;3.95;;
24521;SDS011;12680;57.804;12.190;2023-11-21T11:04:30;7.45;;;3.47;;
24521;SDS011;12680;57.804;12.190;2023-11-21T11:06:59;7.03;;;3.60;;
24521;SDS011;12680;57.804;12.190;2023-11-21T11:09:31;6.03;;;3.60;;
24521;SDS011;12680;57.804;12.190;2023-11-21T11:12:02;5.10;;;3.42;;
24521;SDS011;12680;57.804;12.190;2023-11-21T11:14:31;6.75;;;3.75;;
24521;SDS011;12680;57.804;12.190;2023-11-21T11:16:59;5.80;;;3.80;;
24521;SDS011;12680;57.804;12.190;2023-11-21T11:19:28;9.52;;;3.72;;
24521;SDS011;12680;57.804;12.190;2023-11-21T11:27:30;5.13;;;3.55;;
24521;SDS011;12680;57.804;12.190;2023-11-21T11:30:06;6.72;;;3.33;;
24521;SDS011;12680;57.804;12.190;2023-11-21T11:36:28;5.68;;;3.50;;
24521;SDS011;12680;57.804;12.190;2023-11-21T11:38:44;6.13;;;3.40;;
24521;SDS011;12680;57.804;12.190;2023-11-21T11:41:12;6.90;;;3.55;;
24521;SDS011;12680;57.804;12.190;2023-11-21T11:43:39;5.45;;;3.22;;
24521;SDS011;12680;57.804;12.190;2023-11-21T11:46:11;4.55;;;3.20;;
24521;SDS011;12680;57.804;12.190;2023-11-21T11:48:41;3.20;;;2.33;;
24521;SDS011;12680;57.804;12.190;2023-11-21T11:51:15;4.90;;;2.97;;
24521;SDS011;12680;57.804;12.190;2023-11-21T11:53:47;4.68;;;2.90;;
24521;SDS011;12680;57.804;12.190;2023-11-21T11:56:30;4.75;;;3.25;;
24521;SDS011;12680;57.804;12.190;2023-11-21T11:59:03;4.53;;;2.92;;
24521;SDS011;12680;57.804;12.190;2023-11-21T12:01:32;4.90;;;2.80;;
24521;SDS011;12680;57.804;12.190;2023-11-21T12:07:01;6.82;;;3.20;;
24521;SDS011;12680;57.804;12.190;2023-11-21T12:11:58;4.20;;;3.00;;
24521;SDS011;12680;57.804;12.190;2023-11-21T12:14:25;4.85;;;3.20;;
24521;SDS011;12680;57.804;12.190;2023-11-21T12:16:52;2.95;;;2.33;;
24521;SDS011;12680;57.804;12.190;2023-11-21T12:19:21;4.55;;;2.95;;
24521;SDS011;12680;57.804;12.190;2023-11-21T12:21:48;6.07;;;2.95;;
24521;SDS011;12680;57.804;12.190;2023-11-21T12:24:18;4.30;;;3.03;;
24521;SDS011;12680;57.804;12.190;2023-11-21T12:26:50;4.47;;;3.05;;
24521;SDS011;12680;57.804;12.190;2023-11-21T12:29:17;4.70;;;2.95;;
24521;SDS011;12680;57.804;12.190;2023-11-21T12:31:48;6.40;;;2.67;;
24521;SDS011;12680;57.804;12.190;2023-11-21T12:34:19;3.08;;;2.53;;
24521;SDS011;12680;57.804;12.190;2023-11-21T12:36:47;3.58;;;2.58;;
24521;SDS011;12680;57.804;12.190;2023-11-21T12:39:15;3.63;;;2.47;;
24521;SDS011;12680;57.804;12.190;2023-11-21T12:41:45;5.28;;;2.83;;
24521;SDS011;12680;57.804;12.190;2023-11-21T12:44:12;4.03;;;2.88;;
24521;SDS011;12680;57.804;12.190;2023-11-21T12:46:42;4.15;;;2.85;;
24521;SDS011;12680;57.804;12.190;2023-11-21T12:49:11;5.43;;;3.30;;
24521;SDS011;12680;57.804;12.190;2023-11-21T12:51:45;4.88;;;2.70;;
24521;SDS011;12680;57.804;12.190;2023-11-21T12:54:15;3.85;;;2.95;;
24521;SDS011;12680;57.804;12.190;2023-11-21T12:56:44;4.55;;;2.78;;
24521;SDS011;12680;57.804;12.190;2023-11-21T12:59:13;4.30;;;2.78;;
24521;SDS011;12680;57.804;12.190;2023-11-21T13:01:44;4.13;;;2.92;;
24521;SDS011;12680;57.804;12.190;2023-11-21T13:04:12;4.47;;;2.22;;
24521;SDS011;12680;57.804;12.190;2023-11-21T13:06:39;4.38;;;2.85;;
24521;SDS011;12680;57.804;12.190;2023-11-21T13:09:07;5.13;;;3.03;;
24521;SDS011;12680;57.804;12.190;2023-11-21T13:11:39;4.90;;;2.92;;
24521;SDS011;12680;57.804;12.190;2023-11-21T13:14:07;3.92;;;2.60;;
24521;SDS011;12680;57.804;12.190;2023-11-21T13:16:38;5.18;;;3.10;;
24521;SDS011;12680;57.804;12.190;2023-11-21T13:19:08;3.25;;;2.30;;
24521;SDS011;12680;57.804;12.190;2023-11-21T13:21:35;4.50;;;2.80;;
24521;SDS011;12680;57.804;12.190;2023-11-21T13:24:03;6.60;;;3.08;;
24521;SDS011;12680;57.804;12.190;2023-11-21T13:26:34;5.03;;;3.30;;
24521;SDS011;12680;57.804;12.190;2023-11-21T13:29:01;4.83;;;2.70;;
24521;SDS011;12680;57.804;12.190;2023-11-21T13:31:31;4.30;;;2.55;;
24521;SDS011;12680;57.804;12.190;2023-11-21T13:33:59;6.10;;;3.13;;
24521;SDS011;12680;57.804;12.190;2023-11-21T13:36:32;6.28;;;2.58;;
24521;SDS011;12680;57.804;12.190;2023-11-21T13:39:02;4.65;;;2.92;;
24521;SDS011;12680;57.804;12.190;2023-11-21T13:41:35;4.07;;;2.47;;
24521;SDS011;12680;57.804;12.190;2023-11-21T13:44:04;5.38;;;3.30;;
24521;SDS011;12680;57.804;12.190;2023-11-21T13:46:43;4.10;;;2.88;;
24521;SDS011;12680;57.804;12.190;2023-11-21T13:49:14;4.72;;;2.88;;
24521;SDS011;12680;57.804;12.190;2023-11-21T13:51:42;4.18;;;3.08;;
24521;SDS011;12680;57.804;12.190;2023-11-21T13:54:17;4.32;;;2.65;;
24521;SDS011;12680;57.804;12.190;2023-11-21T13:56:44;5.03;;;3.03;;
24521;SDS011;12680;57.804;12.190;2023-11-21T13:59:17;5.60;;;3.00;;
24521;SDS011;12680;57.804;12.190;2023-11-21T14:01:49;4.97;;;2.63;;
24521;SDS011;12680;57.804;12.190;2023-11-21T14:04:20;5.15;;;3.22;;
24521;SDS011;12680;57.804;12.190;2023-11-21T14:07:01;4.65;;;2.67;;
24521;SDS011;12680;57.804;12.190;2023-11-21T14:09:45;4.15;;;2.65;;
24521;SDS011;12680;57.804;12.190;2023-11-21T14:12:15;5.85;;;2.80;;
24521;SDS011;12680;57.804;12.190;2023-11-21T14:14:42;3.65;;;2.72;;
24521;SDS011;12680;57.804;12.190;2023-11-21T14:17:14;5.13;;;2.75;;
24521;SDS011;12680;57.804;12.190;2023-11-21T14:19:42;8.43;;;2.90;;
24521;SDS011;12680;57.804;12.190;2023-11-21T14:22:10;5.90;;;2.85;;
24521;SDS011;12680;57.804;12.190;2023-11-21T14:24:38;5.88;;;3.10;;
24521;SDS011;12680;57.804;12.190;2023-11-21T14:27:12;5.18;;;2.83;;
24521;SDS011;12680;57.804;12.190;2023-11-21T14:29:39;4.82;;;2.80;;
24521;SDS011;12680;57.804;12.190;2023-11-21T14:32:10;4.22;;;2.45;;
24521;SDS011;12680;57.804;12.190;2023-11-21T14:34:41;4.55;;;2.80;;
24521;SDS011;12680;57.804;12.190;2023-11-21T14:37:12;4.00;;;2.70;;
24521;SDS011;12680;57.804;12.190;2023-11-21T14:39:40;5.55;;;2.55;;
24521;SDS011;12680;57.804;12.190;2023-11-21T14:42:11;3.45;;;2.40;;
24521;SDS011;12680;57.804;12.190;2023-11-21T14:44:45;4.25;;;2.70;;
24521;SDS011;12680;57.804;12.190;2023-11-21T14:47:12;3.97;;;2.60;;
24521;SDS011;12680;57.804;12.190;2023-11-21T14:49:43;4.28;;;2.92;;
24521;SDS011;12680;57.804;12.190;2023-11-21T14:52:20;8.38;;;3.63;;
24521;SDS011;12680;57.804;12.190;2023-11-21T14:55:01;8.07;;;3.35;;
24521;SDS011;12680;57.804;12.190;2023-11-21T14:57:52;5.95;;;3.30;;
24521;SDS011;12680;57.804;12.190;2023-11-21T15:00:20;5.40;;;2.60;;
24521;SDS011;12680;57.804;12.190;2023-11-21T15:03:02;4.47;;;2.95;;